sensor_id;sensor_type;location;lat;lon;timestamp;temperature;humidity
31677;DHT22;18385;51.572;6.578;2023-06-22T00:00:32;25.00;48.60
31677;DHT22;18385;51.572;6.578;2023-06-22T00:02:58;25.00;48.70
31677;DHT22;18385;51.572;6.578;2023-06-22T00:05:23;24.90;48.70
31677;DHT22;18385;51.572;6.578;2023-06-22T00:07:49;24.90;48.80
31677;DHT22;18385;51.572;6.578;2023-06-22T00:10:15;24.90;48.90
31677;DHT22;18385;51.572;6.578;2023-06-22T00:12:40;24.80;49.20
31677;DHT22;18385;51.572;6.578;2023-06-22T00:15:06;24.80;49.20
31677;DHT22;18385;51.572;6.578;2023-06-22T00:17:32;24.80;49.30
31677;DHT22;18385;51.572;6.578;2023-06-22T00:19:57;24.60;49.40
31677;DHT22;18385;51.572;6.578;2023-06-22T00:22:24;24.60;49.60
31677;DHT22;18385;51.572;6.578;2023-06-22T00:24:55;24.60;49.80
31677;DHT22;18385;51.572;6.578;2023-06-22T00:27:21;24.60;49.90
31677;DHT22;18385;51.572;6.578;2023-06-22T00:29:46;24.50;49.90
31677;DHT22;18385;51.572;6.578;2023-06-22T00:32:12;24.50;50.00
31677;DHT22;18385;51.572;6.578;2023-06-22T00:34:38;24.50;50.10
31677;DHT22;18385;51.572;6.578;2023-06-22T00:37:03;24.50;50.20
31677;DHT22;18385;51.572;6.578;2023-06-22T00:39:29;24.50;50.30
31677;DHT22;18385;51.572;6.578;2023-06-22T00:41:55;24.50;50.40
31677;DHT22;18385;51.572;6.578;2023-06-22T00:44:21;24.50;50.50
31677;DHT22;18385;51.572;6.578;2023-06-22T00:46:46;24.50;50.50
31677;DHT22;18385;51.572;6.578;2023-06-22T00:49:12;24.50;50.60
31677;DHT22;18385;51.572;6.578;2023-06-22T00:51:38;24.50;50.70
31677;DHT22;18385;51.572;6.578;2023-06-22T00:54:05;24.40;50.70
31677;DHT22;18385;51.572;6.578;2023-06-22T00:56:32;24.40;50.90
31677;DHT22;18385;51.572;6.578;2023-06-22T00:59:01;24.40;51.00
31677;DHT22;18385;51.572;6.578;2023-06-22T01:01:29;24.30;51.00
31677;DHT22;18385;51.572;6.578;2023-06-22T01:03:55;24.30;51.10
31677;DHT22;18385;51.572;6.578;2023-06-22T01:06:28;24.20;51.20
31677;DHT22;18385;51.572;6.578;2023-06-22T01:09:12;24.20;51.50
31677;DHT22;18385;51.572;6.578;2023-06-22T01:12:02;24.30;51.60
31677;DHT22;18385;51.572;6.578;2023-06-22T01:14:49;24.30;51.40
31677;DHT22;18385;51.572;6.578;2023-06-22T01:17:19;24.40;51.60
31677;DHT22;18385;51.572;6.578;2023-06-22T01:19:48;24.30;51.40
31677;DHT22;18385;51.572;6.578;2023-06-22T01:22:22;24.30;51.60
31677;DHT22;18385;51.572;6.578;2023-06-22T01:25:10;24.20;51.60
31677;DHT22;18385;51.572;6.578;2023-06-22T01:30:18;24.20;51.80
31677;DHT22;18385;51.572;6.578;2023-06-22T01:32:44;24.10;51.90
31677;DHT22;18385;51.572;6.578;2023-06-22T01:35:12;24.10;51.90
31677;DHT22;18385;51.572;6.578;2023-06-22T01:37:38;24.00;52.00
31677;DHT22;18385;51.572;6.578;2023-06-22T01:40:05;24.00;52.10
31677;DHT22;18385;51.572;6.578;2023-06-22T01:42:32;24.00;52.30
31677;DHT22;18385;51.572;6.578;2023-06-22T01:44:59;24.00;52.30
31677;DHT22;18385;51.572;6.578;2023-06-22T01:47:25;24.00;52.40
31677;DHT22;18385;51.572;6.578;2023-06-22T01:49:51;23.90;52.50
31677;DHT22;18385;51.572;6.578;2023-06-22T01:52:20;24.00;52.50
31677;DHT22;18385;51.572;6.578;2023-06-22T01:54:48;24.00;52.60
31677;DHT22;18385;51.572;6.578;2023-06-22T01:57:14;24.00;52.60
31677;DHT22;18385;51.572;6.578;2023-06-22T01:59:48;24.10;52.60
31677;DHT22;18385;51.572;6.578;2023-06-22T02:02:19;24.00;52.60
31677;DHT22;18385;51.572;6.578;2023-06-22T02:04:57;24.00;52.70
31677;DHT22;18385;51.572;6.578;2023-06-22T02:07:31;24.10;52.80
31677;DHT22;18385;51.572;6.578;2023-06-22T02:10:02;24.10;52.80
31677;DHT22;18385;51.572;6.578;2023-06-22T02:12:29;24.00;52.70
31677;DHT22;18385;51.572;6.578;2023-06-22T02:14:56;24.00;52.80
31677;DHT22;18385;51.572;6.578;2023-06-22T02:17:23;23.90;52.80
31677;DHT22;18385;51.572;6.578;2023-06-22T02:19:50;23.90;53.00
31677;DHT22;18385;51.572;6.578;2023-06-22T02:22:15;23.80;53.10
31677;DHT22;18385;51.572;6.578;2023-06-22T02:24:43;23.70;53.20
31677;DHT22;18385;51.572;6.578;2023-06-22T02:27:09;23.70;53.30
31677;DHT22;18385;51.572;6.578;2023-06-22T02:29:36;23.70;53.50
31677;DHT22;18385;51.572;6.578;2023-06-22T02:32:02;23.70;53.50
31677;DHT22;18385;51.572;6.578;2023-06-22T02:34:29;23.70;53.60
31677;DHT22;18385;51.572;6.578;2023-06-22T02:36:55;23.70;53.70
31677;DHT22;18385;51.572;6.578;2023-06-22T02:39:22;23.70;53.80
31677;DHT22;18385;51.572;6.578;2023-06-22T02:41:53;23.70;53.80
31677;DHT22;18385;51.572;6.578;2023-06-22T02:44:19;23.70;53.90
31677;DHT22;18385;51.572;6.578;2023-06-22T02:46:47;23.70;53.90
31677;DHT22;18385;51.572;6.578;2023-06-22T02:49:14;23.70;53.90
31677;DHT22;18385;51.572;6.578;2023-06-22T02:51:44;23.70;53.90
31677;DHT22;18385;51.572;6.578;2023-06-22T02:54:11;23.70;54.00
31677;DHT22;18385;51.572;6.578;2023-06-22T02:56:37;23.70;54.00
31677;DHT22;18385;51.572;6.578;2023-06-22T02:59:03;23.70;54.10
31677;DHT22;18385;51.572;6.578;2023-06-22T03:01:34;23.70;54.10
31677;DHT22;18385;51.572;6.578;2023-06-22T03:04:07;23.60;54.20
31677;DHT22;18385;51.572;6.578;2023-06-22T03:06:34;23.60;54.30
31677;DHT22;18385;51.572;6.578;2023-06-22T03:09:02;23.60;54.40
31677;DHT22;18385;51.572;6.578;2023-06-22T03:11:33;23.50;54.40
31677;DHT22;18385;51.572;6.578;2023-06-22T03:14:00;23.60;54.50
31677;DHT22;18385;51.572;6.578;2023-06-22T03:16:27;23.50;55.20
31677;DHT22;18385;51.572;6.578;2023-06-22T03:18:53;23.50;54.70
31677;DHT22;18385;51.572;6.578;2023-06-22T03:21:21;23.50;54.70
31677;DHT22;18385;51.572;6.578;2023-06-22T03:23:47;23.50;54.80
31677;DHT22;18385;51.572;6.578;2023-06-22T03:26:16;23.40;54.90
31677;DHT22;18385;51.572;6.578;2023-06-22T03:28:42;23.40;55.00
31677;DHT22;18385;51.572;6.578;2023-06-22T03:31:08;23.40;55.00
31677;DHT22;18385;51.572;6.578;2023-06-22T03:33:36;23.30;55.10
31677;DHT22;18385;51.572;6.578;2023-06-22T03:36:02;23.30;55.20
31677;DHT22;18385;51.572;6.578;2023-06-22T03:38:28;23.20;55.30
31677;DHT22;18385;51.572;6.578;2023-06-22T03:40:56;23.20;55.90
31677;DHT22;18385;51.572;6.578;2023-06-22T03:43:22;23.20;55.40
31677;DHT22;18385;51.572;6.578;2023-06-22T03:45:48;23.10;55.50
31677;DHT22;18385;51.572;6.578;2023-06-22T03:48:13;23.00;55.60
31677;DHT22;18385;51.572;6.578;2023-06-22T03:50:39;23.00;55.80
31677;DHT22;18385;51.572;6.578;2023-06-22T03:53:05;23.00;55.80
31677;DHT22;18385;51.572;6.578;2023-06-22T03:55:30;23.00;55.90
31677;DHT22;18385;51.572;6.578;2023-06-22T03:57:56;23.00;56.00
31677;DHT22;18385;51.572;6.578;2023-06-22T04:00:25;23.00;56.00
31677;DHT22;18385;51.572;6.578;2023-06-22T04:02:51;23.00;56.10
31677;DHT22;18385;51.572;6.578;2023-06-22T04:05:17;23.10;56.10
31677;DHT22;18385;51.572;6.578;2023-06-22T04:07:45;23.10;56.10
31677;DHT22;18385;51.572;6.578;2023-06-22T04:10:11;23.10;56.10
31677;DHT22;18385;51.572;6.578;2023-06-22T04:12:36;23.20;56.10
31677;DHT22;18385;51.572;6.578;2023-06-22T04:15:02;23.20;56.10
31677;DHT22;18385;51.572;6.578;2023-06-22T04:17:28;23.20;56.10
31677;DHT22;18385;51.572;6.578;2023-06-22T04:19:53;23.20;56.20
31677;DHT22;18385;51.572;6.578;2023-06-22T04:22:19;23.30;56.30
31677;DHT22;18385;51.572;6.578;2023-06-22T04:24:45;23.30;56.30
31677;DHT22;18385;51.572;6.578;2023-06-22T04:27:10;23.30;56.30
31677;DHT22;18385;51.572;6.578;2023-06-22T04:29:37;23.30;56.30
31677;DHT22;18385;51.572;6.578;2023-06-22T04:32:16;23.30;56.30
31677;DHT22;18385;51.572;6.578;2023-06-22T04:34:42;23.30;56.40
31677;DHT22;18385;51.572;6.578;2023-06-22T04:37:08;23.30;56.40
31677;DHT22;18385;51.572;6.578;2023-06-22T04:39:34;23.30;56.50
31677;DHT22;18385;51.572;6.578;2023-06-22T04:42:00;23.30;56.50
31677;DHT22;18385;51.572;6.578;2023-06-22T04:44:26;23.30;56.50
31677;DHT22;18385;51.572;6.578;2023-06-22T04:46:59;23.30;56.60
31677;DHT22;18385;51.572;6.578;2023-06-22T04:49:34;23.40;56.70
31677;DHT22;18385;51.572;6.578;2023-06-22T04:52:04;23.40;56.70
31677;DHT22;18385;51.572;6.578;2023-06-22T04:54:31;23.50;56.70
31677;DHT22;18385;51.572;6.578;2023-06-22T04:57:04;23.50;56.60
31677;DHT22;18385;51.572;6.578;2023-06-22T04:59:31;23.60;56.60
31677;DHT22;18385;51.572;6.578;2023-06-22T05:01:58;23.70;56.60
31677;DHT22;18385;51.572;6.578;2023-06-22T05:04:24;23.80;56.60
31677;DHT22;18385;51.572;6.578;2023-06-22T05:06:51;23.90;56.50
31677;DHT22;18385;51.572;6.578;2023-06-22T05:09:18;24.10;56.40
31677;DHT22;18385;51.572;6.578;2023-06-22T05:11:45;24.10;56.20
31677;DHT22;18385;51.572;6.578;2023-06-22T05:14:11;24.20;56.20
31677;DHT22;18385;51.572;6.578;2023-06-22T05:16:37;24.20;56.00
31677;DHT22;18385;51.572;6.578;2023-06-22T05:19:03;24.20;55.90
31677;DHT22;18385;51.572;6.578;2023-06-22T05:21:29;24.30;56.10
31677;DHT22;18385;51.572;6.578;2023-06-22T05:23:55;24.30;56.00
31677;DHT22;18385;51.572;6.578;2023-06-22T05:26:29;24.40;56.00
31677;DHT22;18385;51.572;6.578;2023-06-22T05:28:54;24.40;55.80
31677;DHT22;18385;51.572;6.578;2023-06-22T05:31:20;24.40;55.80
31677;DHT22;18385;51.572;6.578;2023-06-22T05:33:46;24.40;55.80
31677;DHT22;18385;51.572;6.578;2023-06-22T05:36:13;24.40;55.80
31677;DHT22;18385;51.572;6.578;2023-06-22T05:38:39;24.40;55.80
31677;DHT22;18385;51.572;6.578;2023-06-22T05:41:05;24.40;55.80
31677;DHT22;18385;51.572;6.578;2023-06-22T05:43:32;24.40;55.80
31677;DHT22;18385;51.572;6.578;2023-06-22T05:46:00;24.40;55.80
31677;DHT22;18385;51.572;6.578;2023-06-22T05:48:26;24.40;55.90
31677;DHT22;18385;51.572;6.578;2023-06-22T05:50:52;24.50;56.00
31677;DHT22;18385;51.572;6.578;2023-06-22T05:53:18;24.50;55.90
31677;DHT22;18385;51.572;6.578;2023-06-22T05:55:44;24.50;56.00
31677;DHT22;18385;51.572;6.578;2023-06-22T05:58:10;24.50;55.90
31677;DHT22;18385;51.572;6.578;2023-06-22T06:00:36;24.50;56.10
31677;DHT22;18385;51.572;6.578;2023-06-22T06:03:02;24.50;56.60
31677;DHT22;18385;51.572;6.578;2023-06-22T06:05:29;24.50;56.10
31677;DHT22;18385;51.572;6.578;2023-06-22T06:07:55;24.50;56.10
31677;DHT22;18385;51.572;6.578;2023-06-22T06:10:21;24.50;56.10
31677;DHT22;18385;51.572;6.578;2023-06-22T06:12:46;24.60;56.10
31677;DHT22;18385;51.572;6.578;2023-06-22T06:15:12;24.60;56.00
31677;DHT22;18385;51.572;6.578;2023-06-22T06:17:47;24.70;56.00
31677;DHT22;18385;51.572;6.578;2023-06-22T06:20:13;24.80;56.00
31677;DHT22;18385;51.572;6.578;2023-06-22T06:22:39;24.80;55.90
31677;DHT22;18385;51.572;6.578;2023-06-22T06:25:05;24.80;55.90
31677;DHT22;18385;51.572;6.578;2023-06-22T06:27:31;24.90;55.90
31677;DHT22;18385;51.572;6.578;2023-06-22T06:29:57;24.90;55.80
31677;DHT22;18385;51.572;6.578;2023-06-22T06:32:22;24.90;55.70
31677;DHT22;18385;51.572;6.578;2023-06-22T06:34:48;24.90;55.80
31677;DHT22;18385;51.572;6.578;2023-06-22T06:37:13;25.00;55.70
31677;DHT22;18385;51.572;6.578;2023-06-22T06:39:39;25.00;55.80
31677;DHT22;18385;51.572;6.578;2023-06-22T06:42:05;25.00;55.70
31677;DHT22;18385;51.572;6.578;2023-06-22T06:44:31;25.00;55.70
31677;DHT22;18385;51.572;6.578;2023-06-22T06:46:56;25.00;55.70
31677;DHT22;18385;51.572;6.578;2023-06-22T06:49:22;25.10;55.70
31677;DHT22;18385;51.572;6.578;2023-06-22T06:51:47;25.10;55.70
31677;DHT22;18385;51.572;6.578;2023-06-22T06:54:13;25.10;55.80
31677;DHT22;18385;51.572;6.578;2023-06-22T06:56:39;25.10;56.00
31677;DHT22;18385;51.572;6.578;2023-06-22T06:59:04;25.10;56.00
31677;DHT22;18385;51.572;6.578;2023-06-22T07:01:30;25.10;55.90
31677;DHT22;18385;51.572;6.578;2023-06-22T07:03:59;25.00;56.00
31677;DHT22;18385;51.572;6.578;2023-06-22T07:06:26;25.00;56.10
31677;DHT22;18385;51.572;6.578;2023-06-22T07:08:55;25.00;56.30
31677;DHT22;18385;51.572;6.578;2023-06-22T07:11:21;25.00;56.40
31677;DHT22;18385;51.572;6.578;2023-06-22T07:13:46;25.00;56.50
31677;DHT22;18385;51.572;6.578;2023-06-22T07:16:12;25.10;56.50
31677;DHT22;18385;51.572;6.578;2023-06-22T07:18:39;25.10;56.40
31677;DHT22;18385;51.572;6.578;2023-06-22T07:21:05;25.10;56.40
31677;DHT22;18385;51.572;6.578;2023-06-22T07:23:32;25.10;56.50
31677;DHT22;18385;51.572;6.578;2023-06-22T07:25:58;25.10;56.50
31677;DHT22;18385;51.572;6.578;2023-06-22T07:28:27;25.10;56.50
31677;DHT22;18385;51.572;6.578;2023-06-22T07:30:53;25.10;56.40
31677;DHT22;18385;51.572;6.578;2023-06-22T07:33:19;25.20;56.40
31677;DHT22;18385;51.572;6.578;2023-06-22T07:35:45;25.30;56.40
31677;DHT22;18385;51.572;6.578;2023-06-22T07:38:12;25.40;56.30
31677;DHT22;18385;51.572;6.578;2023-06-22T07:40:37;25.40;56.30
31677;DHT22;18385;51.572;6.578;2023-06-22T07:43:03;25.50;56.10
31677;DHT22;18385;51.572;6.578;2023-06-22T07:45:29;25.60;56.10
31677;DHT22;18385;51.572;6.578;2023-06-22T07:47:55;25.70;56.10
31677;DHT22;18385;51.572;6.578;2023-06-22T07:50:21;25.80;55.70
31677;DHT22;18385;51.572;6.578;2023-06-22T07:52:46;25.80;55.70
31677;DHT22;18385;51.572;6.578;2023-06-22T07:55:13;25.80;55.60
31677;DHT22;18385;51.572;6.578;2023-06-22T07:57:39;25.80;55.50
31677;DHT22;18385;51.572;6.578;2023-06-22T08:00:07;25.90;55.70
31677;DHT22;18385;51.572;6.578;2023-06-22T08:02:44;26.00;55.40
31677;DHT22;18385;51.572;6.578;2023-06-22T08:05:11;26.00;55.30
31677;DHT22;18385;51.572;6.578;2023-06-22T08:07:37;26.30;55.30
31677;DHT22;18385;51.572;6.578;2023-06-22T08:10:04;26.50;55.00
31677;DHT22;18385;51.572;6.578;2023-06-22T08:12:30;26.70;55.00
31677;DHT22;18385;51.572;6.578;2023-06-22T08:14:55;27.00;54.60
31677;DHT22;18385;51.572;6.578;2023-06-22T08:17:23;27.10;54.10
31677;DHT22;18385;51.572;6.578;2023-06-22T08:19:49;27.00;53.80
31677;DHT22;18385;51.572;6.578;2023-06-22T08:22:15;27.00;53.90
31677;DHT22;18385;51.572;6.578;2023-06-22T08:24:41;27.00;53.70
31677;DHT22;18385;51.572;6.578;2023-06-22T08:27:07;26.90;53.70
31677;DHT22;18385;51.572;6.578;2023-06-22T08:29:41;26.90;53.90
31677;DHT22;18385;51.572;6.578;2023-06-22T08:32:11;26.90;53.80
31677;DHT22;18385;51.572;6.578;2023-06-22T08:34:37;27.00;53.60
31677;DHT22;18385;51.572;6.578;2023-06-22T08:37:02;26.90;53.60
31677;DHT22;18385;51.572;6.578;2023-06-22T08:39:32;26.90;53.50
31677;DHT22;18385;51.572;6.578;2023-06-22T08:41:57;26.80;53.50
31677;DHT22;18385;51.572;6.578;2023-06-22T08:44:23;26.80;53.60
31677;DHT22;18385;51.572;6.578;2023-06-22T08:46:49;26.80;53.70
31677;DHT22;18385;51.572;6.578;2023-06-22T08:49:14;26.80;53.60
31677;DHT22;18385;51.572;6.578;2023-06-22T08:51:40;26.80;53.50
31677;DHT22;18385;51.572;6.578;2023-06-22T08:54:06;26.70;53.30
31677;DHT22;18385;51.572;6.578;2023-06-22T08:56:31;26.50;53.30
31677;DHT22;18385;51.572;6.578;2023-06-22T08:58:57;26.50;53.60
31677;DHT22;18385;51.572;6.578;2023-06-22T09:01:23;26.50;53.70
31677;DHT22;18385;51.572;6.578;2023-06-22T09:03:48;26.40;53.60
31677;DHT22;18385;51.572;6.578;2023-06-22T09:06:21;26.40;53.60
31677;DHT22;18385;51.572;6.578;2023-06-22T09:08:47;26.30;53.70
31677;DHT22;18385;51.572;6.578;2023-06-22T09:11:13;26.30;53.80
31677;DHT22;18385;51.572;6.578;2023-06-22T09:13:38;26.30;53.80
31677;DHT22;18385;51.572;6.578;2023-06-22T09:16:04;26.40;53.80
31677;DHT22;18385;51.572;6.578;2023-06-22T09:18:30;26.50;53.80
31677;DHT22;18385;51.572;6.578;2023-06-22T09:20:56;26.50;54.00
31677;DHT22;18385;51.572;6.578;2023-06-22T09:23:22;26.60;53.60
31677;DHT22;18385;51.572;6.578;2023-06-22T09:25:47;26.60;53.50
31677;DHT22;18385;51.572;6.578;2023-06-22T09:28:14;26.70;53.50
31677;DHT22;18385;51.572;6.578;2023-06-22T09:30:40;26.70;53.40
31677;DHT22;18385;51.572;6.578;2023-06-22T09:33:05;26.60;53.30
31677;DHT22;18385;51.572;6.578;2023-06-22T09:35:31;26.60;53.30
31677;DHT22;18385;51.572;6.578;2023-06-22T09:37:56;26.70;53.30
31677;DHT22;18385;51.572;6.578;2023-06-22T09:40:22;26.60;53.30
31677;DHT22;18385;51.572;6.578;2023-06-22T09:42:48;26.50;53.30
31677;DHT22;18385;51.572;6.578;2023-06-22T09:45:13;26.60;53.40
31677;DHT22;18385;51.572;6.578;2023-06-22T09:47:39;26.60;53.30
31677;DHT22;18385;51.572;6.578;2023-06-22T09:50:05;26.60;53.30
31677;DHT22;18385;51.572;6.578;2023-06-22T09:52:31;26.70;53.30
31677;DHT22;18385;51.572;6.578;2023-06-22T09:54:57;26.70;53.30
31677;DHT22;18385;51.572;6.578;2023-06-22T09:57:23;26.60;53.30
31677;DHT22;18385;51.572;6.578;2023-06-22T09:59:48;26.60;53.40
31677;DHT22;18385;51.572;6.578;2023-06-22T10:02:14;26.60;53.40
31677;DHT22;18385;51.572;6.578;2023-06-22T10:04:39;26.50;53.50
31677;DHT22;18385;51.572;6.578;2023-06-22T10:07:05;26.50;53.60
31677;DHT22;18385;51.572;6.578;2023-06-22T10:09:31;26.40;53.60
31677;DHT22;18385;51.572;6.578;2023-06-22T10:11:57;26.40;53.70
31677;DHT22;18385;51.572;6.578;2023-06-22T10:14:23;26.40;53.90
31677;DHT22;18385;51.572;6.578;2023-06-22T10:16:50;26.50;53.90
31677;DHT22;18385;51.572;6.578;2023-06-22T10:19:16;26.50;53.90
31677;DHT22;18385;51.572;6.578;2023-06-22T10:21:42;26.60;54.00
31677;DHT22;18385;51.572;6.578;2023-06-22T10:24:07;26.90;54.10
31677;DHT22;18385;51.572;6.578;2023-06-22T10:26:34;27.30;53.80
31677;DHT22;18385;51.572;6.578;2023-06-22T10:29:01;27.70;53.40
31677;DHT22;18385;51.572;6.578;2023-06-22T10:31:27;27.90;52.90
31677;DHT22;18385;51.572;6.578;2023-06-22T10:33:53;28.00;52.50
31677;DHT22;18385;51.572;6.578;2023-06-22T10:36:19;28.10;52.30
31677;DHT22;18385;51.572;6.578;2023-06-22T10:38:45;28.10;52.30
31677;DHT22;18385;51.572;6.578;2023-06-22T10:41:12;28.10;52.30
31677;DHT22;18385;51.572;6.578;2023-06-22T10:43:38;28.10;52.20
31677;DHT22;18385;51.572;6.578;2023-06-22T10:46:04;28.00;52.20
31677;DHT22;18385;51.572;6.578;2023-06-22T10:48:29;28.00;52.20
31677;DHT22;18385;51.572;6.578;2023-06-22T10:50:55;28.00;52.20
31677;DHT22;18385;51.572;6.578;2023-06-22T10:53:21;28.00;52.20
31677;DHT22;18385;51.572;6.578;2023-06-22T10:55:47;28.00;52.20
31677;DHT22;18385;51.572;6.578;2023-06-22T10:58:13;28.00;52.20
31677;DHT22;18385;51.572;6.578;2023-06-22T11:00:39;28.10;52.10
31677;DHT22;18385;51.572;6.578;2023-06-22T11:03:04;28.20;52.00
31677;DHT22;18385;51.572;6.578;2023-06-22T11:05:31;28.20;52.00
31677;DHT22;18385;51.572;6.578;2023-06-22T11:07:57;28.20;51.80
31677;DHT22;18385;51.572;6.578;2023-06-22T11:10:23;28.10;51.80
31677;DHT22;18385;51.572;6.578;2023-06-22T11:12:48;28.00;51.70
31677;DHT22;18385;51.572;6.578;2023-06-22T11:15:14;27.90;51.80
31677;DHT22;18385;51.572;6.578;2023-06-22T11:17:40;27.80;51.90
31677;DHT22;18385;51.572;6.578;2023-06-22T11:20:06;27.60;52.10
31677;DHT22;18385;51.572;6.578;2023-06-22T11:22:40;27.60;52.20
31677;DHT22;18385;51.572;6.578;2023-06-22T11:25:06;27.60;52.30
31677;DHT22;18385;51.572;6.578;2023-06-22T11:27:34;27.50;52.40
31677;DHT22;18385;51.572;6.578;2023-06-22T11:29:59;27.50;52.50
31677;DHT22;18385;51.572;6.578;2023-06-22T11:32:25;27.50;52.60
31677;DHT22;18385;51.572;6.578;2023-06-22T11:34:51;27.50;52.70
31677;DHT22;18385;51.572;6.578;2023-06-22T11:37:17;27.60;52.80
31677;DHT22;18385;51.572;6.578;2023-06-22T11:39:43;27.70;52.80
31677;DHT22;18385;51.572;6.578;2023-06-22T11:42:09;27.90;52.70
31677;DHT22;18385;51.572;6.578;2023-06-22T11:44:35;27.90;53.20
31677;DHT22;18385;51.572;6.578;2023-06-22T11:47:00;27.90;52.60
31677;DHT22;18385;51.572;6.578;2023-06-22T11:49:29;27.90;52.80
31677;DHT22;18385;51.572;6.578;2023-06-22T11:51:55;27.90;52.90
31677;DHT22;18385;51.572;6.578;2023-06-22T11:54:20;27.90;53.00
31677;DHT22;18385;51.572;6.578;2023-06-22T11:56:46;27.90;52.90
31677;DHT22;18385;51.572;6.578;2023-06-22T11:59:12;27.80;53.20
31677;DHT22;18385;51.572;6.578;2023-06-22T12:01:37;27.80;53.40
31677;DHT22;18385;51.572;6.578;2023-06-22T12:04:03;27.60;53.50
31677;DHT22;18385;51.572;6.578;2023-06-22T12:06:32;27.50;53.90
31677;DHT22;18385;51.572;6.578;2023-06-22T12:08:58;27.30;54.20
31677;DHT22;18385;51.572;6.578;2023-06-22T12:11:23;27.20;54.50
31677;DHT22;18385;51.572;6.578;2023-06-22T12:13:49;27.00;55.00
31677;DHT22;18385;51.572;6.578;2023-06-22T12:16:15;26.70;55.40
31677;DHT22;18385;51.572;6.578;2023-06-22T12:18:40;26.50;55.70
31677;DHT22;18385;51.572;6.578;2023-06-22T12:21:06;26.40;56.20
31677;DHT22;18385;51.572;6.578;2023-06-22T12:23:32;26.20;56.50
31677;DHT22;18385;51.572;6.578;2023-06-22T12:25:58;26.10;56.90
31677;DHT22;18385;51.572;6.578;2023-06-22T12:28:25;26.10;57.30
31677;DHT22;18385;51.572;6.578;2023-06-22T12:30:51;26.20;57.40
31677;DHT22;18385;51.572;6.578;2023-06-22T12:33:17;26.30;57.70
31677;DHT22;18385;51.572;6.578;2023-06-22T12:35:43;26.60;58.00
31677;DHT22;18385;51.572;6.578;2023-06-22T12:38:10;27.10;58.00
31677;DHT22;18385;51.572;6.578;2023-06-22T12:40:36;27.70;57.70
31677;DHT22;18385;51.572;6.578;2023-06-22T12:43:02;28.30;57.20
31677;DHT22;18385;51.572;6.578;2023-06-22T12:45:28;28.70;56.50
31677;DHT22;18385;51.572;6.578;2023-06-22T12:47:56;28.90;56.30
31677;DHT22;18385;51.572;6.578;2023-06-22T12:50:22;29.10;56.00
31677;DHT22;18385;51.572;6.578;2023-06-22T12:52:48;29.00;55.60
31677;DHT22;18385;51.572;6.578;2023-06-22T12:55:13;28.90;55.60
31677;DHT22;18385;51.572;6.578;2023-06-22T12:57:39;28.80;55.80
31677;DHT22;18385;51.572;6.578;2023-06-22T13:00:05;28.60;56.10
31677;DHT22;18385;51.572;6.578;2023-06-22T13:02:33;28.40;56.40
31677;DHT22;18385;51.572;6.578;2023-06-22T13:04:59;28.30;56.70
31677;DHT22;18385;51.572;6.578;2023-06-22T13:07:24;28.60;57.20
31677;DHT22;18385;51.572;6.578;2023-06-22T13:09:50;28.90;56.30
31677;DHT22;18385;51.572;6.578;2023-06-22T13:12:17;28.80;55.70
31677;DHT22;18385;51.572;6.578;2023-06-22T13:14:42;28.60;56.00
31677;DHT22;18385;51.572;6.578;2023-06-22T13:17:09;28.40;56.00
31677;DHT22;18385;51.572;6.578;2023-06-22T13:19:34;28.40;56.30
31677;DHT22;18385;51.572;6.578;2023-06-22T13:22:00;28.40;56.30
31677;DHT22;18385;51.572;6.578;2023-06-22T13:24:28;28.50;56.10
31677;DHT22;18385;51.572;6.578;2023-06-22T13:26:53;28.40;55.90
31677;DHT22;18385;51.572;6.578;2023-06-22T13:29:19;28.30;55.80
31677;DHT22;18385;51.572;6.578;2023-06-22T13:31:44;28.10;55.90
31677;DHT22;18385;51.572;6.578;2023-06-22T13:34:10;27.80;56.20
31677;DHT22;18385;51.572;6.578;2023-06-22T13:36:36;27.60;56.40
31677;DHT22;18385;51.572;6.578;2023-06-22T13:39:01;27.40;56.60
31677;DHT22;18385;51.572;6.578;2023-06-22T13:41:27;27.20;56.90
31677;DHT22;18385;51.572;6.578;2023-06-22T13:43:53;27.20;57.30
31677;DHT22;18385;51.572;6.578;2023-06-22T13:46:18;27.30;57.40
31677;DHT22;18385;51.572;6.578;2023-06-22T13:48:44;27.50;57.10
31677;DHT22;18385;51.572;6.578;2023-06-22T13:51:09;27.70;56.90
31677;DHT22;18385;51.572;6.578;2023-06-22T13:53:35;27.70;56.50
31677;DHT22;18385;51.572;6.578;2023-06-22T13:56:01;27.80;56.60
31677;DHT22;18385;51.572;6.578;2023-06-22T13:58:26;27.90;56.40
31677;DHT22;18385;51.572;6.578;2023-06-22T14:00:52;27.80;56.10
31677;DHT22;18385;51.572;6.578;2023-06-22T14:03:18;27.70;56.10
31677;DHT22;18385;51.572;6.578;2023-06-22T14:05:43;27.60;56.30
31677;DHT22;18385;51.572;6.578;2023-06-22T14:08:09;27.50;56.60
31677;DHT22;18385;51.572;6.578;2023-06-22T14:10:35;27.40;56.70
31677;DHT22;18385;51.572;6.578;2023-06-22T14:13:00;27.30;56.60
31677;DHT22;18385;51.572;6.578;2023-06-22T14:15:26;27.20;56.70
31677;DHT22;18385;51.572;6.578;2023-06-22T14:17:52;27.10;57.00
31677;DHT22;18385;51.572;6.578;2023-06-22T14:20:18;27.10;57.10
31677;DHT22;18385;51.572;6.578;2023-06-22T14:22:44;27.10;57.00
31677;DHT22;18385;51.572;6.578;2023-06-22T14:25:09;27.10;57.00
31677;DHT22;18385;51.572;6.578;2023-06-22T14:27:35;27.10;57.10
31677;DHT22;18385;51.572;6.578;2023-06-22T14:30:01;27.00;57.10
31677;DHT22;18385;51.572;6.578;2023-06-22T14:32:28;27.10;57.20
31677;DHT22;18385;51.572;6.578;2023-06-22T14:34:55;27.10;57.20
31677;DHT22;18385;51.572;6.578;2023-06-22T14:37:21;27.00;56.90
31677;DHT22;18385;51.572;6.578;2023-06-22T14:39:46;26.80;57.00
31677;DHT22;18385;51.572;6.578;2023-06-22T14:42:12;26.50;57.20
31677;DHT22;18385;51.572;6.578;2023-06-22T14:44:38;26.40;57.50
31677;DHT22;18385;51.572;6.578;2023-06-22T14:47:03;26.40;57.80
31677;DHT22;18385;51.572;6.578;2023-06-22T14:49:29;26.40;57.80
31677;DHT22;18385;51.572;6.578;2023-06-22T14:51:55;26.30;57.80
31677;DHT22;18385;51.572;6.578;2023-06-22T14:54:21;26.30;57.90
31677;DHT22;18385;51.572;6.578;2023-06-22T14:56:47;26.30;58.00
31677;DHT22;18385;51.572;6.578;2023-06-22T14:59:13;26.20;57.90
31677;DHT22;18385;51.572;6.578;2023-06-22T15:01:39;26.20;58.00
31677;DHT22;18385;51.572;6.578;2023-06-22T15:04:05;26.20;58.10
31677;DHT22;18385;51.572;6.578;2023-06-22T15:06:31;26.10;58.10
31677;DHT22;18385;51.572;6.578;2023-06-22T15:08:56;26.10;58.20
31677;DHT22;18385;51.572;6.578;2023-06-22T15:11:22;26.00;58.20
31677;DHT22;18385;51.572;6.578;2023-06-22T15:13:48;25.90;58.30
31677;DHT22;18385;51.572;6.578;2023-06-22T15:16:13;25.90;58.50
31677;DHT22;18385;51.572;6.578;2023-06-22T15:18:39;25.80;58.50
31677;DHT22;18385;51.572;6.578;2023-06-22T15:21:06;25.80;58.60
31677;DHT22;18385;51.572;6.578;2023-06-22T15:23:32;25.80;58.70
31677;DHT22;18385;51.572;6.578;2023-06-22T15:26:01;25.60;58.60
31677;DHT22;18385;51.572;6.578;2023-06-22T15:28:28;25.40;58.90